Time;durP1;ratioP1;P1;durP2;ratioP2;P2;SDS_P1;SDS_P2;PMS_P1;PMS_P2;Temp;Humidity;BMP_temperature;BMP_pressure;BME280_temperature;BME280_humidity;BME280_pressure;Samples;Min_cycle;Max_cycle;Signal;HPM_P1;HPM_P2
2022/07/15 00:00:06;;;;;;;6.38;2.08;;;14.60;99.90;;;;;;4834667;29;20434;-77
2022/07/15 00:02:31;;;;;;;5.75;2.05;;;14.60;99.90;;;;;;4865110;29;20045;-79
2022/07/15 00:04:57;;;;;;;6.28;2.70;;;14.50;99.90;;;;;;4880233;29;20421;-78
2022/07/15 00:07:23;;;;;;;8.25;2.10;;;14.50;99.90;;;;;;4864505;29;20100;-79
2022/07/15 00:12:33;;;;;;;5.60;2.13;;;14.50;99.90;;;;;;4880143;29;20063;-79
2022/07/15 00:14:59;;;;;;;6.88;2.00;;;14.40;99.90;;;;;;4864279;29;20520;-78
2022/07/15 00:17:26;;;;;;;7.13;2.08;;;14.40;99.90;;;;;;4864160;29;20482;-78
2022/07/15 00:19:52;;;;;;;4.47;1.90;;;14.40;99.90;;;;;;4864112;29;20132;-78
2022/07/15 00:22:17;;;;;;;7.70;2.38;;;14.40;99.90;;;;;;4864692;29;20136;-78
2022/07/15 00:24:43;;;;;;;5.15;2.25;;;14.40;99.90;;;;;;4879739;29;20056;-78
2022/07/15 00:27:08;;;;;;;6.70;2.30;;;14.40;99.90;;;;;;4848819;29;20101;-78
2022/07/15 00:29:34;;;;;;;7.68;2.85;;;14.30;99.90;;;;;;4864648;29;20057;-78
2022/07/15 00:32:00;;;;;;;5.18;1.90;;;14.40;99.90;;;;;;4849576;29;20037;-77
2022/07/15 00:34:26;;;;;;;7.22;2.30;;;14.30;99.90;;;;;;4864275;29;20097;-77
2022/07/15 00:36:51;;;;;;;4.97;2.05;;;14.30;99.90;;;;;;4850236;29;20052;-78
2022/07/15 00:39:17;;;;;;;4.15;1.83;;;14.30;99.90;;;;;;4849313;29;20454;-78
2022/07/15 00:41:43;;;;;;;7.45;2.33;;;14.30;99.90;;;;;;4834213;29;20053;-78
2022/07/15 00:44:10;;;;;;;6.32;1.98;;;14.30;99.90;;;;;;4848636;29;20068;-78
2022/07/15 00:46:36;;;;;;;5.72;2.22;;;14.40;99.90;;;;;;4879795;29;20085;-79
2022/07/15 00:49:06;;;;;;;6.88;2.13;;;14.30;99.90;;;;;;4864248;29;20386;-79
2022/07/15 00:51:54;;;;;;;6.40;2.45;;;14.30;99.90;;;;;;4863439;29;20037;-77
2022/07/15 00:54:27;;;;;;;6.70;1.85;;;14.30;99.90;;;;;;4878861;29;20565;-78
2022/07/15 00:56:57;;;;;;;4.75;2.38;;;14.30;99.90;;;;;;4864144;29;20080;-77
2022/07/15 00:59:28;;;;;;;6.88;2.22;;;14.30;99.90;;;;;;4863818;29;20041;-78
2022/07/15 01:01:56;;;;;;;7.55;2.10;;;14.40;99.90;;;;;;4863900;29;20041;-78
2022/07/15 01:04:23;;;;;;;4.15;1.83;;;14.40;99.90;;;;;;4848088;29;20041;-79
2022/07/15 01:06:49;;;;;;;7.78;1.90;;;14.40;99.90;;;;;;4863911;29;20048;-78
2022/07/15 01:09:15;;;;;;;6.97;1.75;;;14.40;99.90;;;;;;4878614;29;20454;-78
2022/07/15 01:11:41;;;;;;;5.85;2.00;;;14.40;99.90;;;;;;4863692;29;20139;-78
2022/07/15 01:14:06;;;;;;;7.47;1.92;;;14.50;99.90;;;;;;4863453;29;20049;-78
2022/07/15 01:16:32;;;;;;;6.07;2.30;;;14.50;99.90;;;;;;4848219;29;20052;-78
2022/07/15 01:18:58;;;;;;;8.13;1.88;;;14.50;99.90;;;;;;4863404;29;20061;-78
2022/07/15 01:21:24;;;;;;;4.28;1.70;;;14.50;99.90;;;;;;4863592;29;20158;-78
2022/07/15 01:23:50;;;;;;;5.00;2.05;;;14.50;99.90;;;;;;4832564;29;20545;-78
2022/07/15 01:26:16;;;;;;;5.05;2.00;;;14.50;99.90;;;;;;4847952;29;20096;-78
2022/07/15 01:28:42;;;;;;;7.65;2.05;;;14.50;99.90;;;;;;4863385;29;20043;-79
2022/07/15 01:31:08;;;;;;;6.60;1.92;;;14.50;99.90;;;;;;4863089;29;20040;-79
2022/07/15 01:33:35;;;;;;;6.80;2.35;;;14.50;99.90;;;;;;4878178;29;20105;-79
2022/07/15 01:36:01;;;;;;;6.35;2.00;;;14.50;99.90;;;;;;4862624;29;20044;-78
2022/07/15 01:38:28;;;;;;;5.45;1.83;;;14.50;99.90;;;;;;4863417;29;20097;-78
2022/07/15 01:40:54;;;;;;;5.22;1.70;;;14.50;99.90;;;;;;4879491;29;20379;-79
2022/07/15 01:43:20;;;;;;;4.90;1.63;;;14.60;99.90;;;;;;4878556;29;20064;-79
2022/07/15 01:45:46;;;;;;;6.40;1.50;;;14.60;99.90;;;;;;4848045;29;20124;-78
2022/07/15 01:50:59;;;;;;;7.13;1.95;;;14.60;99.90;;;;;;4865740;29;20570;-79
2022/07/15 01:53:26;;;;;;;6.10;2.08;;;14.60;99.90;;;;;;4878972;29;20049;-78
2022/07/15 01:55:52;;;;;;;7.03;1.75;;;14.70;99.90;;;;;;4848276;29;20454;-79
2022/07/15 01:58:18;;;;;;;5.70;1.60;;;14.70;99.90;;;;;;4863835;29;20108;-79
2022/07/15 02:00:44;;;;;;;5.32;1.55;;;14.70;99.90;;;;;;4863402;29;20486;-80
2022/07/15 02:03:10;;;;;;;6.15;1.40;;;14.70;99.90;;;;;;4878614;29;20082;-78
2022/07/15 02:05:36;;;;;;;7.60;1.90;;;14.70;99.90;;;;;;4863383;29;20132;-79
2022/07/15 02:08:02;;;;;;;5.47;1.33;;;14.70;99.90;;;;;;4879209;29;20095;-79
2022/07/15 02:10:40;;;;;;;5.40;1.42;;;14.70;99.90;;;;;;4878554;29;20033;-79
2022/07/15 02:13:11;;;;;;;6.55;1.63;;;14.70;99.90;;;;;;4849190;29;20491;-78
2022/07/15 02:15:38;;;;;;;6.13;1.45;;;14.60;99.90;;;;;;4862990;29;20136;-77
2022/07/15 02:18:04;;;;;;;8.23;1.70;;;14.70;99.90;;;;;;4848629;29;20056;-78
2022/07/15 02:20:30;;;;;;;5.85;1.48;;;14.70;99.90;;;;;;4866091;29;20049;-77
2022/07/15 02:22:57;;;;;;;8.55;2.05;;;14.70;99.90;;;;;;4851803;29;20049;-78
2022/07/15 02:25:30;;;;;;;5.93;1.58;;;14.70;99.90;;;;;;4882637;29;20037;-78
2022/07/15 02:27:57;;;;;;;6.28;1.75;;;14.70;99.90;;;;;;4852000;29;20041;-79
2022/07/15 02:30:25;;;;;;;8.05;1.70;;;14.60;99.90;;;;;;4867030;29;20049;-78
2022/07/15 02:32:51;;;;;;;4.28;1.45;;;14.70;99.90;;;;;;4882299;29;20043;-78
2022/07/15 02:35:17;;;;;;;6.57;1.88;;;14.60;99.90;;;;;;4866512;29;20131;-78
2022/07/15 02:37:44;;;;;;;3.25;1.27;;;14.60;99.90;;;;;;4835834;29;20041;-79
2022/07/15 02:40:10;;;;;;;5.03;1.65;;;14.60;99.90;;;;;;4866427;29;20336;-78
2022/07/15 02:42:36;;;;;;;7.03;2.38;;;14.50;99.90;;;;;;4866881;29;20041;-78
2022/07/15 02:45:02;;;;;;;6.85;1.98;;;14.50;99.90;;;;;;4835147;29;20405;-78
2022/07/15 02:47:28;;;;;;;5.82;1.52;;;14.50;99.90;;;;;;4850550;29;20498;-78
2022/07/15 02:49:54;;;;;;;7.50;2.25;;;14.40;99.90;;;;;;4866371;29;20037;-78
2022/07/15 02:52:19;;;;;;;7.88;1.90;;;14.40;99.90;;;;;;4850997;29;20037;-78
2022/07/15 02:54:45;;;;;;;6.82;1.50;;;14.40;99.90;;;;;;4851166;29;20049;-80
2022/07/15 02:57:11;;;;;;;5.30;1.50;;;14.30;99.90;;;;;;4851583;29;20143;-79
2022/07/15 02:59:36;;;;;;;5.60;1.65;;;14.30;99.90;;;;;;4836040;29;20517;-79
2022/07/15 03:02:02;;;;;;;4.57;1.33;;;14.20;99.90;;;;;;4850390;29;20523;-78
2022/07/15 03:04:28;;;;;;;8.10;2.53;;;14.20;99.90;;;;;;4850368;29;20041;-78
2022/07/15 03:06:54;;;;;;;7.53;2.35;;;14.10;99.90;;;;;;4865836;29;20041;-80
2022/07/15 03:09:19;;;;;;;4.65;1.50;;;14.10;99.90;;;;;;4866132;29;20053;-78
2022/07/15 03:11:45;;;;;;;5.32;1.60;;;14.10;99.90;;;;;;4850487;29;20041;-78
2022/07/15 03:14:11;;;;;;;8.68;1.88;;;14.00;99.90;;;;;;4834803;29;20041;-79
2022/07/15 03:16:37;;;;;;;7.78;1.85;;;14.00;99.90;;;;;;4850184;29;20052;-79
2022/07/15 03:19:02;;;;;;;9.02;2.85;;;13.90;99.90;;;;;;4834855;29;20124;-78
2022/07/15 03:21:28;;;;;;;5.85;1.83;;;13.90;99.90;;;;;;4865208;29;20294;-78
2022/07/15 03:23:54;;;;;;;8.98;1.75;;;13.90;99.90;;;;;;4866075;29;20049;-78
2022/07/15 03:26:20;;;;;;;8.20;2.15;;;13.90;99.90;;;;;;4850518;29;20092;-78
2022/07/15 03:28:46;;;;;;;8.27;2.65;;;13.80;99.90;;;;;;4851129;29;20550;-78
2022/07/15 03:31:12;;;;;;;5.82;1.70;;;13.80;99.90;;;;;;4849530;29;20405;-78
2022/07/15 03:33:38;;;;;;;6.88;2.08;;;13.70;99.90;;;;;;4866261;29;20136;-79
2022/07/15 03:36:05;;;;;;;5.07;2.00;;;13.70;99.90;;;;;;4866274;29;20108;-79
2022/07/15 03:38:31;;;;;;;5.53;2.10;;;13.70;99.90;;;;;;4850521;29;20084;-79
2022/07/15 03:40:58;;;;;;;6.07;2.17;;;13.70;99.90;;;;;;4865252;29;20037;-79
2022/07/15 03:43:26;;;;;;;6.38;2.17;;;13.60;99.90;;;;;;4864784;29;20518;-79
2022/07/15 03:45:53;;;;;;;9.35;2.58;;;13.60;99.90;;;;;;4850331;29;20056;-79
2022/07/15 03:48:19;;;;;;;8.50;1.92;;;13.60;99.90;;;;;;4865639;29;20045;-78
2022/07/15 03:50:45;;;;;;;7.70;1.90;;;13.60;99.90;;;;;;4865660;29;20061;-78
2022/07/15 03:53:10;;;;;;;5.03;1.88;;;13.60;99.90;;;;;;4850400;29;20045;-78
2022/07/15 03:55:37;;;;;;;4.10;1.63;;;13.60;99.90;;;;;;4835049;29;20045;-78
2022/07/15 03:58:04;;;;;;;6.43;1.80;;;13.60;99.90;;;;;;4850392;29;20128;-79
2022/07/15 04:00:29;;;;;;;6.43;1.67;;;13.50;99.90;;;;;;4865295;29;20095;-79
2022/07/15 04:02:55;;;;;;;6.07;2.00;;;13.60;99.90;;;;;;4865594;29;20060;-79
2022/07/15 04:05:21;;;;;;;6.57;2.13;;;13.50;99.90;;;;;;4849427;29;20049;-79
2022/07/15 04:07:47;;;;;;;5.25;1.60;;;13.50;99.90;;;;;;4880663;29;20562;-78
2022/07/15 04:10:14;;;;;;;7.20;2.20;;;13.50;99.90;;;;;;4865727;29;20079;-80
2022/07/15 04:12:41;;;;;;;7.85;2.08;;;13.50;99.90;;;;;;4865217;29;20052;-79
2022/07/15 04:15:07;;;;;;;5.50;1.92;;;13.40;99.90;;;;;;4865065;29;20049;-79
2022/07/15 04:17:34;;;;;;;4.60;1.75;;;13.40;99.90;;;;;;4834354;29;20044;-78
2022/07/15 04:19:59;;;;;;;5.10;1.95;;;13.40;99.90;;;;;;4880058;29;20049;-80
2022/07/15 04:22:25;;;;;;;7.63;1.80;;;13.40;99.90;;;;;;4864418;29;20049;-78
2022/07/15 04:24:51;;;;;;;7.15;2.03;;;13.40;99.90;;;;;;4879294;29;20220;-78
2022/07/15 04:27:17;;;;;;;7.53;2.25;;;13.40;99.90;;;;;;4848686;29;20041;-78
2022/07/15 04:29:43;;;;;;;7.05;2.22;;;13.40;99.90;;;;;;4863712;29;20046;-78
2022/07/15 04:32:09;;;;;;;6.03;1.80;;;13.40;99.90;;;;;;4863674;29;20048;-78
2022/07/15 04:34:35;;;;;;;6.15;1.67;;;13.50;99.90;;;;;;4864240;29;20068;-79
2022/07/15 04:37:00;;;;;;;5.40;1.55;;;13.40;99.90;;;;;;4879956;29;20045;-78
2022/07/15 04:39:26;;;;;;;7.32;2.25;;;13.50;99.90;;;;;;4849659;29;20062;-79
2022/07/15 04:41:52;;;;;;;5.63;1.60;;;13.40;99.90;;;;;;4833783;29;20458;-79
2022/07/15 04:44:18;;;;;;;6.85;1.70;;;13.50;99.90;;;;;;4864036;29;20056;-78
2022/07/15 04:46:44;;;;;;;5.18;1.40;;;13.50;99.90;;;;;;4863618;29;20045;-78
2022/07/15 04:51:55;;;;;;;5.45;1.40;;;13.50;99.90;;;;;;4866235;29;20100;-78
2022/07/15 04:54:21;;;;;;;5.20;1.20;;;13.60;99.90;;;;;;4849445;29;20045;-79
2022/07/15 04:56:46;;;;;;;4.68;1.42;;;13.60;99.90;;;;;;4864368;29;20087;-78
2022/07/15 04:59:12;;;;;;;6.60;1.30;;;13.70;99.90;;;;;;4879257;29;20045;-79
2022/07/15 05:01:38;;;;;;;5.82;1.27;;;13.70;99.90;;;;;;4864240;29;20454;-78
2022/07/15 05:04:04;;;;;;;5.25;1.55;;;13.70;99.90;;;;;;4879909;29;20071;-78
2022/07/15 05:06:29;;;;;;;5.30;1.17;;;13.80;99.90;;;;;;4864455;29;20052;-78
2022/07/15 05:08:55;;;;;;;4.05;1.13;;;13.80;99.90;;;;;;4864432;29;20116;-78
2022/07/15 05:11:21;;;;;;;8.25;1.10;;;13.90;99.90;;;;;;4879365;29;20041;-78
2022/07/15 05:13:46;;;;;;;6.03;1.40;;;13.90;99.90;;;;;;4848115;29;20037;-77
2022/07/15 05:16:12;;;;;;;4.82;1.17;;;13.90;99.90;;;;;;4848357;29;20072;-77
2022/07/15 05:18:38;;;;;;;5.47;1.05;;;14.00;99.90;;;;;;4833597;29;20045;-78
2022/07/15 05:21:03;;;;;;;3.08;0.85;;;14.00;99.90;;;;;;4849070;29;20045;-79
2022/07/15 05:23:29;;;;;;;5.70;1.25;;;14.00;99.90;;;;;;4833929;29;20056;-78
2022/07/15 05:25:55;;;;;;;5.95;1.55;;;14.00;99.90;;;;;;4863848;29;20045;-78
2022/07/15 05:28:21;;;;;;;9.15;1.15;;;14.10;99.90;;;;;;4879521;29;20085;-78
2022/07/15 05:30:47;;;;;;;4.68;0.93;;;14.10;99.90;;;;;;4863913;29;20401;-78
2022/07/15 05:33:16;;;;;;;2.83;1.17;;;14.10;99.90;;;;;;4863732;29;20129;-79
2022/07/15 05:35:42;;;;;;;5.20;1.10;;;14.20;99.90;;;;;;4878827;29;20113;-79
2022/07/15 05:38:08;;;;;;;5.22;1.08;;;14.20;99.90;;;;;;4863885;29;20096;-79
2022/07/15 05:40:34;;;;;;;4.20;1.00;;;14.30;99.90;;;;;;4847990;29;20049;-79
2022/07/15 05:42:59;;;;;;;3.05;0.90;;;14.30;99.90;;;;;;4863060;29;20053;-80
2022/07/15 05:45:25;;;;;;;4.20;0.82;;;14.30;99.90;;;;;;4848021;29;20086;-79
2022/07/15 05:47:51;;;;;;;3.53;1.02;;;14.40;99.90;;;;;;4848345;29;20037;-79
2022/07/15 05:50:18;;;;;;;4.13;0.75;;;14.50;99.90;;;;;;4847899;29;20045;-80
2022/07/15 05:52:43;;;;;;;8.10;1.23;;;14.50;99.90;;;;;;4848034;29;20052;-78
2022/07/15 05:55:10;;;;;;;2.05;1.02;;;14.60;99.90;;;;;;4862168;29;20088;-78
2022/07/15 05:57:36;;;;;;;2.25;0.80;;;14.70;99.90;;;;;;4847881;29;20517;-79
2022/07/15 06:00:03;;;;;;;4.30;0.80;;;14.70;99.90;;;;;;4862504;29;20045;-79
2022/07/15 06:02:30;;;;;;;2.28;0.70;;;14.80;99.90;;;;;;4863849;29;20049;-78
2022/07/15 06:04:56;;;;;;;4.93;1.00;;;14.80;99.90;;;;;;4863780;29;20057;-78
2022/07/15 06:07:22;;;;;;;2.22;0.55;;;14.90;99.90;;;;;;4863598;29;20093;-79
2022/07/15 06:09:50;;;;;;;3.42;0.80;;;15.00;99.90;;;;;;4848735;29;20044;-78
2022/07/15 06:12:17;;;;;;;2.53;0.95;;;15.10;99.90;;;;;;4848407;29;20045;-79
2022/07/15 06:14:43;;;;;;;2.83;0.73;;;15.10;99.90;;;;;;4863472;29;20098;-78
2022/07/15 06:17:09;;;;;;;2.13;0.47;;;15.20;99.90;;;;;;4847777;29;20037;-79
2022/07/15 06:19:35;;;;;;;3.53;0.80;;;15.20;99.90;;;;;;4863003;29;20056;-77
2022/07/15 06:22:01;;;;;;;1.63;0.55;;;15.30;99.90;;;;;;4879187;29;20128;-78
2022/07/15 06:24:27;;;;;;;2.35;0.70;;;15.40;99.90;;;;;;4848193;29;20084;-79
2022/07/15 06:26:53;;;;;;;2.03;0.50;;;15.40;99.90;;;;;;4847524;29;20490;-79
2022/07/15 06:29:19;;;;;;;2.03;0.47;;;15.60;99.90;;;;;;4862838;29;20108;-79
2022/07/15 06:31:45;;;;;;;2.88;0.77;;;15.60;99.90;;;;;;4847762;29;20491;-78
2022/07/15 06:34:11;;;;;;;3.08;0.60;;;15.70;99.90;;;;;;4863587;29;20079;-79
2022/07/15 06:36:36;;;;;;;3.08;0.60;;;15.80;99.90;;;;;;4862950;29;20135;-79
2022/07/15 06:39:03;;;;;;;1.90;0.50;;;15.90;99.90;;;;;;4878783;29;20508;-78
2022/07/15 06:41:29;;;;;;;1.70;0.50;;;16.10;99.90;;;;;;4878153;29;20053;-80
2022/07/15 06:43:55;;;;;;;1.42;0.60;;;16.20;99.90;;;;;;4862403;29;20060;-78
2022/07/15 06:46:20;;;;;;;3.05;0.52;;;16.40;99.90;;;;;;4863095;29;20048;-79
2022/07/15 06:48:46;;;;;;;1.63;0.80;;;16.60;99.90;;;;;;4848044;29;20053;-77
2022/07/15 06:51:12;;;;;;;3.42;0.60;;;16.80;99.90;;;;;;4848920;29;20037;-80
2022/07/15 06:53:37;;;;;;;3.90;0.50;;;16.90;99.90;;;;;;4863761;29;20073;-79
2022/07/15 06:56:03;;;;;;;1.77;0.40;;;17.10;99.90;;;;;;4847341;29;20045;-78
2022/07/15 06:58:29;;;;;;;8.05;0.70;;;17.30;99.90;;;;;;4846675;29;20497;-80
2022/07/15 07:00:55;;;;;;;1.83;0.52;;;17.50;99.90;;;;;;4847068;29;20047;-77
2022/07/15 07:03:21;;;;;;;13.43;0.60;;;17.60;99.90;;;;;;4848060;29;20415;-79
2022/07/15 07:05:46;;;;;;;5.72;0.73;;;17.70;99.90;;;;;;4864904;29;20088;-78
2022/07/15 07:08:12;;;;;;;1.75;0.43;;;17.80;99.90;;;;;;4851334;29;20041;-80
2022/07/15 07:10:38;;;;;;;5.05;0.60;;;17.90;99.90;;;;;;4867164;29;20040;-77
2022/07/15 07:13:03;;;;;;;4.82;0.63;;;18.10;99.90;;;;;;4882673;29;20040;-78
2022/07/15 07:15:29;;;;;;;3.00;0.70;;;18.20;99.90;;;;;;4866983;29;20080;-79
2022/07/15 07:17:55;;;;;;;2.58;0.60;;;18.30;99.90;;;;;;4867001;29;20072;-79
2022/07/15 07:20:21;;;;;;;1.98;0.50;;;18.40;99.70;;;;;;4866684;29;20251;-79
2022/07/15 07:22:46;;;;;;;2.63;0.60;;;18.50;99.50;;;;;;4851236;29;20045;-79
2022/07/15 07:25:12;;;;;;;1.55;0.57;;;18.60;98.20;;;;;;4867000;29;20090;-79
2022/07/15 07:27:38;;;;;;;0.47;0.28;;;18.70;98.50;;;;;;4851163;29;20394;-78
2022/07/15 07:30:06;;;;;;;1.52;0.40;;;18.80;98.50;;;;;;4867020;29;20407;-78
2022/07/15 07:32:32;;;;;;;2.45;0.55;;;19.00;98.10;;;;;;4835787;29;20041;-79
2022/07/15 07:34:58;;;;;;;2.38;0.50;;;19.40;97.90;;;;;;4865702;29;20052;-77
2022/07/15 07:37:26;;;;;;;2.92;0.70;;;19.70;96.90;;;;;;4866012;29;20498;-79
2022/07/15 07:39:52;;;;;;;3.20;0.50;;;20.00;96.80;;;;;;4881381;29;20048;-79
2022/07/15 07:42:19;;;;;;;2.95;0.63;;;20.40;96.00;;;;;;4849917;29;20113;-79
2022/07/15 07:44:45;;;;;;;0.68;0.30;;;20.70;94.70;;;;;;4864902;29;20072;-80
2022/07/15 07:47:11;;;;;;;6.65;0.50;;;20.80;94.00;;;;;;4865614;29;20398;-78
2022/07/15 07:49:37;;;;;;;5.32;0.38;;;21.10;93.10;;;;;;4849880;29;20037;-78
2022/07/15 07:52:04;;;;;;;0.75;0.35;;;21.10;92.30;;;;;;4866622;29;20127;-80
2022/07/15 07:54:30;;;;;;;2.13;0.40;;;21.20;92.00;;;;;;4865193;29;20049;-79
2022/07/15 07:56:56;;;;;;;5.25;0.65;;;21.30;91.40;;;;;;4850757;29;20053;-77
2022/07/15 07:59:21;;;;;;;4.53;0.38;;;21.30;91.10;;;;;;4834814;29;20457;-80
2022/07/15 08:01:47;;;;;;;2.60;0.63;;;21.40;90.70;;;;;;4835292;29;20055;-79
2022/07/15 08:04:14;;;;;;;0.95;0.32;;;21.40;90.50;;;;;;4835525;29;20513;-79
2022/07/15 08:06:40;;;;;;;4.72;0.55;;;21.50;90.10;;;;;;4834653;29;20160;-77
2022/07/15 08:09:06;;;;;;;14.38;0.88;;;21.50;90.10;;;;;;4880594;29;20052;-78
2022/07/15 08:11:32;;;;;;;5.63;0.80;;;21.50;89.80;;;;;;4850778;29;20051;-78
2022/07/15 08:13:58;;;;;;;2.92;0.52;;;21.60;89.50;;;;;;4850192;29;20136;-78
2022/07/15 08:16:24;;;;;;;2.58;0.60;;;21.70;89.60;;;;;;4865844;29;20045;-79
2022/07/15 08:18:50;;;;;;;5.88;0.73;;;21.70;88.80;;;;;;4834621;29;20053;-79
2022/07/15 08:21:16;;;;;;;1.60;0.50;;;21.80;89.40;;;;;;4865421;29;20108;-79
2022/07/15 08:23:42;;;;;;;3.40;0.40;;;21.90;87.20;;;;;;4849676;29;20095;-78
2022/07/15 08:26:10;;;;;;;11.15;1.02;;;22.20;87.10;;;;;;4849230;29;20044;-77
2022/07/15 08:28:36;;;;;;;1.65;0.40;;;22.40;86.30;;;;;;4865318;29;20056;-79
2022/07/15 08:31:02;;;;;;;3.83;0.57;;;22.50;85.40;;;;;;4880619;29;20093;-78
2022/07/15 08:33:28;;;;;;;0.93;0.40;;;22.50;83.00;;;;;;4880168;29;20076;-79
2022/07/15 08:35:55;;;;;;;4.13;0.68;;;22.40;82.60;;;;;;4833899;29;20049;-79
2022/07/15 08:38:20;;;;;;;5.40;0.90;;;22.30;82.30;;;;;;4849344;29;20552;-79
2022/07/15 08:40:46;;;;;;;1.73;0.60;;;22.30;81.50;;;;;;4864380;29;20084;-78
2022/07/15 08:43:12;;;;;;;1.90;0.40;;;22.30;81.90;;;;;;4833580;29;20045;-79
2022/07/15 08:45:42;;;;;;;10.23;0.95;;;22.30;82.60;;;;;;4864371;29;20153;-79
2022/07/15 08:48:08;;;;;;;6.30;0.70;;;22.10;82.00;;;;;;4880315;29;20041;-79
2022/07/15 08:50:36;;;;;;;4.63;0.47;;;21.90;81.50;;;;;;4864236;29;20402;-80
2022/07/15 08:53:03;;;;;;;4.00;0.40;;;21.90;81.80;;;;;;4864395;29;20053;-78
2022/07/15 08:55:29;;;;;;;5.05;0.60;;;21.90;80.70;;;;;;4865448;29;20045;-79
2022/07/15 08:57:55;;;;;;;4.35;0.50;;;22.00;80.10;;;;;;4864199;29;20056;-79
2022/07/15 09:00:28;;;;;;;2.13;0.30;;;22.10;79.30;;;;;;4848601;29;20459;-78
2022/07/15 09:02:59;;;;;;;9.10;0.93;;;22.20;79.00;;;;;;4864398;29;20109;-78
2022/07/15 09:05:36;;;;;;;3.35;0.60;;;22.30;78.60;;;;;;4880039;29;20052;-78
2022/07/15 09:08:10;;;;;;;1.42;0.40;;;22.50;78.00;;;;;;4863642;29;20041;-79
2022/07/15 09:10:48;;;;;;;1.50;0.60;;;22.80;76.60;;;;;;4864368;29;20045;-78
2022/07/15 09:13:25;;;;;;;3.42;0.40;;;22.90;75.70;;;;;;4865799;29;20041;-79
2022/07/15 09:15:51;;;;;;;29.15;1.65;;;23.10;75.10;;;;;;4864378;29;20045;-79
2022/07/15 09:18:20;;;;;;;2.05;0.45;;;23.30;76.20;;;;;;4848678;29;20502;-78
2022/07/15 09:20:47;;;;;;;8.43;1.00;;;23.30;74.30;;;;;;4863975;29;20123;-78
2022/07/15 09:23:20;;;;;;;3.35;0.70;;;23.20;74.60;;;;;;4864579;29;20041;-79
2022/07/15 09:25:47;;;;;;;16.23;1.15;;;22.90;75.30;;;;;;4864352;29;20045;-78
2022/07/15 09:28:13;;;;;;;1.10;0.35;;;22.80;76.00;;;;;;4864811;29;20045;-79
2022/07/15 09:33:40;;;;;;;3.95;0.60;;;22.20;76.60;;;;;;4867019;29;20493;-81
2022/07/15 09:36:09;;;;;;;19.15;1.40;;;21.90;77.50;;;;;;4849745;29;20053;-79
2022/07/15 09:38:57;;;;;;;7.18;0.50;;;21.60;78.00;;;;;;4864466;29;20120;-79
2022/07/15 09:41:32;;;;;;;9.48;0.50;;;21.60;78.10;;;;;;4864478;29;20542;-78
2022/07/15 09:44:05;;;;;;;3.92;0.57;;;21.60;79.40;;;;;;4863378;29;20061;-79
2022/07/15 09:46:59;;;;;;;1.58;0.52;;;21.70;79.90;;;;;;4863674;29;20083;-79
2022/07/15 09:49:25;;;;;;;5.40;0.70;;;21.80;79.20;;;;;;4863087;29;20045;-78
2022/07/15 09:52:07;;;;;;;2.40;0.50;;;21.90;80.30;;;;;;4863929;29;20399;-78
2022/07/15 09:54:41;;;;;;;3.88;0.60;;;22.10;77.60;;;;;;4864695;29;20040;-79
2022/07/15 09:57:16;;;;;;;7.90;1.00;;;21.90;78.60;;;;;;4863976;29;20056;-77
2022/07/15 09:59:46;;;;;;;8.68;0.75;;;21.70;80.00;;;;;;4879570;29;20521;-78
2022/07/15 10:02:12;;;;;;;8.68;1.15;;;21.60;81.00;;;;;;4863916;29;20047;-77
2022/07/15 10:04:38;;;;;;;3.83;0.55;;;21.50;80.60;;;;;;4880468;29;20084;-78
2022/07/15 10:07:05;;;;;;;7.22;0.90;;;21.40;81.20;;;;;;4867430;29;20048;-78
2022/07/15 10:09:36;;;;;;;4.13;0.60;;;21.60;82.60;;;;;;4865712;29;20045;-78
2022/07/15 10:12:14;;;;;;;5.45;0.93;;;21.70;82.50;;;;;;4862523;29;20043;-78
2022/07/15 10:15:01;;;;;;;2.65;0.80;;;21.80;81.40;;;;;;4862257;29;20087;-78
2022/07/15 10:17:59;;;;;;;8.10;0.70;;;21.80;80.20;;;;;;4862640;29;20494;-78
2022/07/15 10:20:43;;;;;;;7.25;0.70;;;21.70;82.20;;;;;;4845155;29;20056;-79
2022/07/15 10:23:38;;;;;;;75.35;3.33;;;21.50;80.30;;;;;;4863998;29;20140;-78
2022/07/15 10:26:21;;;;;;;4.88;0.80;;;21.30;81.90;;;;;;4863420;29;20108;-78
2022/07/15 10:28:58;;;;;;;13.98;1.20;;;21.30;82.40;;;;;;4863531;29;20041;-78
2022/07/15 10:31:26;;;;;;;2.08;0.70;;;21.30;82.30;;;;;;4862358;29;20053;-78
2022/07/15 10:34:04;;;;;;;3.45;0.77;;;21.30;81.90;;;;;;4863783;29;20097;-77
2022/07/15 10:37:00;;;;;;;3.10;0.80;;;21.30;81.50;;;;;;4864043;29;20113;-78
2022/07/15 10:39:47;;;;;;;4.20;0.90;;;21.30;81.00;;;;;;4850407;29;20418;-79
2022/07/15 10:42:13;;;;;;;6.18;0.60;;;21.20;80.70;;;;;;4867154;29;20048;-78
2022/07/15 10:44:58;;;;;;;4.32;0.73;;;21.10;81.00;;;;;;4867568;29;20061;-78
2022/07/15 10:47:24;;;;;;;4.88;0.60;;;21.00;81.80;;;;;;4884305;29;20056;-80
2022/07/15 10:49:51;;;;;;;4.72;0.77;;;21.00;81.90;;;;;;4865917;29;20045;-78
2022/07/15 10:52:19;;;;;;;4.28;0.80;;;21.10;81.90;;;;;;4835475;29;20040;-78
2022/07/15 10:55:01;;;;;;;2.15;0.60;;;21.20;81.30;;;;;;4866936;29;20041;-78
2022/07/15 10:57:52;;;;;;;8.25;0.77;;;21.20;80.50;;;;;;4882148;29;20194;-78
2022/07/15 11:00:22;;;;;;;1.80;0.77;;;21.20;80.30;;;;;;4872188;29;20061;-78
2022/07/15 11:03:05;;;;;;;2.10;0.60;;;21.20;80.20;;;;;;4866372;29;20076;-79
2022/07/15 11:05:31;;;;;;;2.05;0.80;;;21.10;80.70;;;;;;4881661;29;20041;-79
2022/07/15 11:07:57;;;;;;;2.92;0.82;;;21.00;81.10;;;;;;4866642;29;20037;-78
2022/07/15 11:10:23;;;;;;;3.72;1.00;;;21.00;81.40;;;;;;4881596;29;20125;-78
2022/07/15 11:12:49;;;;;;;2.20;0.77;;;21.10;81.80;;;;;;4850687;29;20041;-79
2022/07/15 11:15:17;;;;;;;3.60;0.73;;;21.20;82.30;;;;;;4866002;29;20045;-77
2022/07/15 11:17:49;;;;;;;15.57;1.00;;;21.30;82.80;;;;;;4866360;29;20045;-79
2022/07/15 11:20:21;;;;;;;6.03;0.50;;;21.40;82.70;;;;;;4867666;29;20064;-78
2022/07/15 11:22:49;;;;;;;7.25;1.13;;;21.60;82.70;;;;;;4866218;29;20521;-79
2022/07/15 11:25:20;;;;;;;3.33;0.90;;;21.70;82.20;;;;;;4865407;29;20044;-78
2022/07/15 11:28:00;;;;;;;2.90;0.80;;;21.70;81.40;;;;;;4880718;29;20092;-78
2022/07/15 11:30:27;;;;;;;4.13;0.80;;;21.50;80.20;;;;;;4864982;29;20045;-79
2022/07/15 11:32:58;;;;;;;4.40;0.77;;;21.40;81.50;;;;;;4881329;29;20470;-79
2022/07/15 11:35:24;;;;;;;3.50;0.75;;;21.30;82.20;;;;;;4882577;29;20526;-77
2022/07/15 11:37:57;;;;;;;3.20;0.70;;;21.30;82.20;;;;;;4866423;29;20045;-78
2022/07/15 11:45:57;;;;;;;4.55;0.77;;;21.50;83.90;;;;;;4880771;29;20160;-79
2022/07/15 11:48:23;;;;;;;5.05;0.90;;;21.60;83.50;;;;;;4881247;29;20114;-79
2022/07/15 11:50:58;;;;;;;3.75;0.90;;;21.60;84.50;;;;;;4866770;29;20045;-78
2022/07/15 11:53:24;;;;;;;4.50;1.00;;;21.70;83.70;;;;;;4865296;29;20408;-77
2022/07/15 11:55:59;;;;;;;15.02;1.33;;;21.90;84.20;;;;;;4881891;29;20478;-78
2022/07/15 11:58:26;;;;;;;3.47;0.88;;;22.00;83.70;;;;;;4865432;29;20045;-79
2022/07/15 12:00:52;;;;;;;4.85;0.82;;;22.00;83.60;;;;;;4850622;29;20056;-79
2022/07/15 12:03:18;;;;;;;6.68;1.13;;;22.00;82.80;;;;;;4865451;29;20049;-77
2022/07/15 12:06:21;;;;;;;4.40;0.75;;;21.90;82.80;;;;;;4865773;29;20140;-78
2022/07/15 12:08:49;;;;;;;4.43;0.75;;;21.90;81.80;;;;;;4856254;29;20092;-78
2022/07/15 12:11:15;;;;;;;1.40;0.70;;;22.00;81.90;;;;;;4866247;29;20052;-78
2022/07/15 12:13:54;;;;;;;2.28;0.73;;;22.10;80.60;;;;;;4882116;29;20045;-78
2022/07/15 12:16:25;;;;;;;3.00;0.80;;;22.20;81.30;;;;;;4882076;29;20475;-77
2022/07/15 12:18:53;;;;;;;4.15;1.10;;;22.20;80.90;;;;;;4866136;29;20041;-79
2022/07/15 12:21:19;;;;;;;2.40;0.80;;;22.20;80.90;;;;;;4865900;29;20049;-77
2022/07/15 12:24:07;;;;;;;4.35;0.60;;;22.30;81.20;;;;;;4866355;29;20052;-77
2022/07/15 12:26:38;;;;;;;5.55;0.70;;;22.60;81.10;;;;;;4865516;29;20051;-78
2022/07/15 12:29:05;;;;;;;10.32;1.85;;;22.70;82.30;;;;;;4866567;29;20037;-79
2022/07/15 12:31:33;;;;;;;1.83;0.73;;;22.90;81.90;;;;;;4834860;29;20043;-78
2022/07/15 12:33:59;;;;;;;6.97;2.70;;;23.10;80.60;;;;;;4881118;29;20086;-77
2022/07/15 12:36:30;;;;;;;5.15;0.93;;;23.20;80.00;;;;;;4865463;29;20048;-78
2022/07/15 12:39:16;;;;;;;5.15;1.20;;;23.30;78.30;;;;;;4865529;29;20446;-78
2022/07/15 12:41:44;;;;;;;4.03;0.93;;;23.30;78.80;;;;;;4849110;29;20080;-78
2022/07/15 12:44:10;;;;;;;3.08;1.10;;;23.20;78.90;;;;;;4865884;29;20148;-78
2022/07/15 12:46:59;;;;;;;2.58;0.73;;;23.40;79.10;;;;;;4865742;29;20080;-79
2022/07/15 12:49:48;;;;;;;3.55;0.80;;;23.40;77.70;;;;;;4865262;29;20045;-78
2022/07/15 12:52:32;;;;;;;4.47;0.50;;;23.40;76.90;;;;;;4865284;29;20040;-77
2022/07/15 12:55:10;;;;;;;3.58;0.77;;;23.60;79.60;;;;;;4865017;29;20041;-79
2022/07/15 12:57:36;;;;;;;1.90;0.60;;;24.10;79.00;;;;;;4865397;29;20464;-78
2022/07/15 13:00:09;;;;;;;5.00;0.70;;;24.60;78.50;;;;;;4834827;29;20123;-79
2022/07/15 13:02:55;;;;;;;1.20;0.43;;;25.00;76.50;;;;;;4880539;29;20044;-79
2022/07/15 13:05:21;;;;;;;1.65;0.70;;;25.50;73.10;;;;;;4865790;29;20372;-78
2022/07/15 13:07:47;;;;;;;9.73;1.13;;;25.80;75.60;;;;;;4864850;29;20041;-79